createdAt,value
2017-12-03T00:00:18.226Z,14.1
2017-12-03T00:02:17.887Z,14.3
2017-12-03T00:04:17.567Z,14.1
2017-12-03T00:06:17.254Z,14.4
2017-12-03T00:08:17.946Z,14
2017-12-03T00:10:17.627Z,14.1
2017-12-03T00:12:18.297Z,14.8
2017-12-03T00:14:17.960Z,15
2017-12-03T00:16:16.640Z,14.7
2017-12-03T00:18:17.333Z,14.6
2017-12-03T00:20:18.033Z,15.5
2017-12-03T00:22:17.713Z,14.6
2017-12-03T00:24:18.380Z,13.9
2017-12-03T00:26:17.064Z,14.6
2017-12-03T00:28:17.758Z,15.5
2017-12-03T00:30:17.437Z,15.3
2017-12-03T00:32:18.112Z,16.5
2017-12-03T00:34:17.788Z,15.8
2017-12-03T00:36:17.479Z,17.3
2017-12-03T00:38:18.176Z,16.4
2017-12-03T00:40:17.844Z,17
2017-12-03T00:42:17.554Z,17.1
2017-12-03T00:44:18.208Z,16.2
2017-12-03T00:46:16.914Z,17.4
2017-12-03T00:48:17.595Z,16.4
2017-12-03T00:50:18.244Z,17
2017-12-03T00:52:17.950Z,17.2
2017-12-03T00:54:17.617Z,16.9
2017-12-03T00:56:17.297Z,17.1
2017-12-03T00:58:17.974Z,16.1
2017-12-03T01:00:17.644Z,17.7
2017-12-03T01:02:18.346Z,16.6
2017-12-03T01:04:18.022Z,16.8
2017-12-03T01:06:16.692Z,15.9
2017-12-03T01:08:18.375Z,17
2017-12-03T01:10:17.030Z,17.7
2017-12-03T01:12:17.719Z,18
2017-12-03T01:14:18.390Z,18.2
2017-12-03T01:16:17.077Z,18.2
2017-12-03T01:18:17.731Z,18.6
2017-12-03T01:20:17.393Z,18
2017-12-03T01:22:18.069Z,17.1
2017-12-03T01:24:17.755Z,17.9
2017-12-03T01:26:17.404Z,16.6
2017-12-03T01:28:18.062Z,16.9
2017-12-03T01:30:17.752Z,17.3
2017-12-03T01:32:17.417Z,15.7
2017-12-03T01:34:18.106Z,15.9
2017-12-03T01:36:17.775Z,15.8
2017-12-03T01:38:17.451Z,17
2017-12-03T01:40:17.120Z,15.9
2017-12-03T01:42:17.790Z,15.4
2017-12-03T01:44:17.452Z,15.3
2017-12-03T01:46:17.130Z,14.7
2017-12-03T01:48:17.778Z,14.6
2017-12-03T01:50:17.439Z,14.5
2017-12-03T01:52:18.106Z,14.6
2017-12-03T01:54:17.764Z,14
2017-12-03T01:56:21.416Z,14.2
2017-12-03T01:58:18.100Z,15
2017-12-03T02:00:17.765Z,13.4
2017-12-03T02:02:17.430Z,14
2017-12-03T02:04:18.091Z,15.3
2017-12-03T02:06:17.740Z,15.4
2017-12-03T02:08:17.440Z,14
2017-12-03T02:10:17.097Z,14
2017-12-03T02:12:17.781Z,14.9
2017-12-03T02:14:17.455Z,13.9
2017-12-03T02:16:17.161Z,14.9
2017-12-03T02:18:18.096Z,14.6
2017-12-03T02:20:17.481Z,15.1
2017-12-03T02:22:18.140Z,14.6
2017-12-03T02:24:18.087Z,16
2017-12-03T02:26:17.494Z,15.3
2017-12-03T02:28:18.161Z,14.2
2017-12-03T02:30:17.836Z,14.5
2017-12-03T02:32:17.530Z,14.7
2017-12-03T02:34:18.251Z,13.5
2017-12-03T02:36:16.895Z,14.4
2017-12-03T02:38:17.569Z,14.8
2017-12-03T02:40:17.260Z,15.2
2017-12-03T02:42:17.919Z,13.4
2017-12-03T02:44:17.606Z,14.8
2017-12-03T02:46:17.261Z,14.3
2017-12-03T02:48:17.960Z,13.2
2017-12-03T02:50:17.636Z,14.1
2017-12-03T02:52:18.319Z,14.4
2017-12-03T02:54:18.005Z,13.9
2017-12-03T02:56:17.677Z,15.1
2017-12-03T02:58:18.363Z,15.3
2017-12-03T03:00:18.032Z,14.8
2017-12-03T03:02:17.725Z,14.1
2017-12-03T03:04:18.414Z,16
2017-12-03T03:06:17.124Z,14.7
2017-12-03T03:08:17.788Z,15.1
2017-12-03T03:10:17.479Z,14.4
2017-12-03T03:12:18.129Z,13.7
2017-12-03T03:14:17.808Z,16.1
2017-12-03T03:16:17.481Z,14.8
2017-12-03T03:18:18.152Z,13.8
2017-12-03T03:20:17.804Z,13
2017-12-03T03:22:17.465Z,14.5
2017-12-03T03:24:18.139Z,14.2
2017-12-03T03:26:17.786Z,14.4
2017-12-03T03:28:17.467Z,14.7
2017-12-03T03:30:18.148Z,14.4
2017-12-03T03:32:17.800Z,13.9
2017-12-03T03:34:17.484Z,15.1
2017-12-03T03:36:17.155Z,14.6
2017-12-03T03:38:17.840Z,14.5
2017-12-03T03:40:17.488Z,15
2017-12-03T03:42:18.183Z,15.2
2017-12-03T03:44:17.858Z,15
2017-12-03T03:46:17.526Z,13.9
2017-12-03T03:48:18.171Z,14.8
2017-12-03T03:50:17.848Z,15
2017-12-03T03:52:17.524Z,14.1
2017-12-03T03:54:18.230Z,14.8
2017-12-03T03:56:17.887Z,15.9
2017-12-03T03:58:17.567Z,15.6
2017-12-03T04:00:18.241Z,14.5
2017-12-03T04:02:17.925Z,15.2
2017-12-03T04:04:17.610Z,14.9
2017-12-03T04:06:17.279Z,15.2
2017-12-03T04:08:17.967Z,16.2
2017-12-03T04:10:17.673Z,15.7
2017-12-03T04:12:18.337Z,14.9
2017-12-03T04:14:18.027Z,16
2017-12-03T04:16:17.702Z,14.8
2017-12-03T04:18:17.384Z,15
2017-12-03T04:20:18.032Z,15.9
2017-12-03T04:22:17.717Z,15.3
2017-12-03T04:24:18.393Z,14.9
2017-12-03T04:26:17.089Z,16.1
2017-12-03T04:28:17.750Z,16
2017-12-03T04:30:17.401Z,14.9
2017-12-03T04:32:18.073Z,16.2
2017-12-03T04:34:17.732Z,15.6
2017-12-03T04:36:17.401Z,14.9
2017-12-03T04:38:18.091Z,16.7
2017-12-03T04:40:17.740Z,15.3
2017-12-03T04:42:17.427Z,15.7
2017-12-03T04:44:18.097Z,15
2017-12-03T04:46:20.728Z,16.2
2017-12-03T04:48:17.442Z,16
2017-12-03T04:50:18.086Z,16
2017-12-03T04:52:17.757Z,16
2017-12-03T04:54:17.419Z,17.2
2017-12-03T04:56:18.084Z,16.5
2017-12-03T04:58:17.756Z,16.8
2017-12-03T05:00:17.449Z,16.8
2017-12-03T05:02:18.090Z,16.6
2017-12-03T05:04:17.769Z,18.1
2017-12-03T05:06:17.438Z,17.4
2017-12-03T05:08:18.100Z,18.8
2017-12-03T05:10:17.791Z,18.1
2017-12-03T05:12:17.445Z,18.4
2017-12-03T05:14:18.129Z,18.1
2017-12-03T05:16:17.812Z,16.5
2017-12-03T05:18:17.486Z,18.3
2017-12-03T05:20:18.160Z,16.6
2017-12-03T05:22:17.835Z,17.5
2017-12-03T05:24:17.531Z,17.8
2017-12-03T05:26:17.194Z,17.2
2017-12-03T05:28:17.874Z,18
2017-12-03T05:30:17.555Z,17.9
2017-12-03T05:32:18.227Z,17.8
2017-12-03T05:34:17.923Z,17.4
2017-12-03T05:36:17.599Z,17.3
2017-12-03T05:38:18.258Z,18.1
2017-12-03T05:40:16.932Z,18.5
2017-12-03T05:42:17.610Z,19
2017-12-03T05:44:18.313Z,17.5
2017-12-03T05:46:17.994Z,16.9
2017-12-03T05:48:17.655Z,19.4
2017-12-03T05:50:18.315Z,18.1
2017-12-03T05:52:17.989Z,19.6
2017-12-03T05:54:17.643Z,19.9
2017-12-03T05:56:17.322Z,18
2017-12-03T05:58:17.990Z,18.7
2017-12-03T06:00:17.657Z,18.3
2017-12-03T06:02:18.316Z,18.3
2017-12-03T06:04:17.982Z,19.2
2017-12-03T06:06:20.676Z,19.7
2017-12-03T06:08:18.335Z,18.9
2017-12-03T06:10:16.968Z,18.4
2017-12-03T06:12:17.620Z,20.5
2017-12-03T06:14:18.305Z,20.2
2017-12-03T06:16:16.969Z,19.8
2017-12-03T06:18:17.659Z,19.9
2017-12-03T06:20:18.296Z,20.4
2017-12-03T06:22:17.972Z,18.7
2017-12-03T06:24:17.612Z,19.2
2017-12-03T06:26:17.287Z,19.2
2017-12-03T06:28:17.937Z,19.2
2017-12-03T06:30:17.605Z,18.6
2017-12-03T06:32:18.252Z,20.3
2017-12-03T06:34:17.968Z,17.9
2017-12-03T06:36:17.621Z,19.3
2017-12-03T06:38:18.291Z,19.5
2017-12-03T06:40:16.959Z,19.9
2017-12-03T06:42:17.615Z,17.9
2017-12-03T06:44:18.272Z,18.7
2017-12-03T06:46:17.934Z,19
2017-12-03T06:48:17.591Z,19.5
2017-12-03T06:50:18.252Z,17.8
2017-12-03T06:52:17.916Z,17.7
2017-12-03T06:54:17.559Z,17.8
2017-12-03T06:56:17.228Z,18.6
2017-12-03T06:58:17.878Z,17.5
2017-12-03T07:00:17.562Z,18.9
2017-12-03T07:02:18.208Z,17.9
2017-12-03T07:04:17.886Z,17.9
2017-12-03T07:06:17.558Z,17.4
2017-12-03T07:08:18.193Z,17.9
2017-12-03T07:10:17.858Z,19
2017-12-03T07:12:17.492Z,17.8
2017-12-03T07:14:18.144Z,17.7
2017-12-03T07:16:16.792Z,16.8
2017-12-03T07:18:17.452Z,17.6
2017-12-03T07:20:18.105Z,17.1
2017-12-03T07:22:17.774Z,17.9
2017-12-03T07:24:17.430Z,17.9
2017-12-03T07:26:17.071Z,16.8
2017-12-03T07:28:17.711Z,16.2
2017-12-03T07:30:18.378Z,15.7
2017-12-03T07:32:18.026Z,16.6
2017-12-03T07:34:17.691Z,16.4
2017-12-03T07:36:17.347Z,16.5
2017-12-03T07:38:18.029Z,16.7
2017-12-03T07:40:17.667Z,15.9
2017-12-03T07:42:18.329Z,16.1
2017-12-03T07:44:17.982Z,16.8
2017-12-03T07:46:17.635Z,16.1
2017-12-03T07:48:18.289Z,15.3
2017-12-03T07:50:17.943Z,14.8
2017-12-03T07:52:17.594Z,14.8
2017-12-03T07:54:18.306Z,15.5
2017-12-03T07:56:17.884Z,15.3
2017-12-03T07:58:17.510Z,14
2017-12-03T08:00:18.168Z,15.1
2017-12-03T08:02:17.812Z,15.1
2017-12-03T08:04:17.488Z,14.7
2017-12-03T08:06:17.127Z,15.2
2017-12-03T08:08:17.775Z,15
2017-12-03T08:10:17.447Z,14.9
2017-12-03T08:12:18.070Z,14
2017-12-03T08:14:17.717Z,14.1
2017-12-03T08:16:17.359Z,13.3
2017-12-03T08:18:18.014Z,13.9
2017-12-03T08:20:17.675Z,14.9
2017-12-03T08:22:18.330Z,13.7
2017-12-03T08:24:17.997Z,13.2
2017-12-03T08:26:17.650Z,13.2
2017-12-03T08:28:18.311Z,13.1
2017-12-03T08:30:17.971Z,12.7
2017-12-03T08:32:17.637Z,11.9
2017-12-03T08:34:18.280Z,12.6
2017-12-03T08:36:17.967Z,12.8
2017-12-03T08:38:17.624Z,11.9
2017-12-03T08:40:17.303Z,13.1
2017-12-03T08:42:17.957Z,11.5
2017-12-03T08:44:17.592Z,11.3
2017-12-03T08:46:17.268Z,12.1
2017-12-03T08:48:17.927Z,12.1
2017-12-03T08:50:17.568Z,12
2017-12-03T08:52:18.213Z,11.8
2017-12-03T08:54:17.887Z,11.9
2017-12-03T08:56:17.582Z,12.5
2017-12-03T08:58:18.226Z,12.4
2017-12-03T09:00:17.889Z,11.9
2017-12-03T09:02:17.561Z,11.3
2017-12-03T09:04:18.247Z,11.5
2017-12-03T09:06:16.917Z,11.5
2017-12-03T09:08:17.594Z,10.5
2017-12-03T09:10:17.269Z,11.8
2017-12-03T09:12:17.951Z,10.7
2017-12-03T09:14:17.634Z,10.7
2017-12-03T09:16:17.304Z,10.7
2017-12-03T09:18:17.998Z,10.4
2017-12-03T09:20:17.653Z,11.2
2017-12-03T09:22:18.342Z,10.7
2017-12-03T09:24:18.022Z,10
2017-12-03T09:26:17.710Z,9.3
2017-12-03T09:28:18.407Z,10
2017-12-03T09:30:18.099Z,9.9
2017-12-03T09:32:17.797Z,9.3
2017-12-03T09:34:17.485Z,9.3
2017-12-03T09:36:17.191Z,9.2
2017-12-03T09:38:17.871Z,9.5
2017-12-03T09:40:17.572Z,9
2017-12-03T09:42:18.252Z,8.7
2017-12-03T09:44:17.965Z,9.9
2017-12-03T09:46:17.644Z,9.3
2017-12-03T09:48:18.350Z,9.3
2017-12-03T09:50:18.039Z,9.7
2017-12-03T09:52:17.735Z,9.4
2017-12-03T09:54:17.436Z,8.6
2017-12-03T09:56:21.130Z,8.9
2017-12-03T09:58:17.824Z,7.8
2017-12-03T10:00:17.549Z,8.7
2017-12-03T10:02:18.223Z,8.7
2017-12-03T10:04:17.949Z,8.4
2017-12-03T10:06:17.651Z,8.2
2017-12-03T10:08:18.368Z,8.3
2017-12-03T10:10:17.071Z,9.2
2017-12-03T10:12:17.779Z,8.8
2017-12-03T10:14:17.501Z,8.4
2017-12-03T10:16:17.218Z,8.2
2017-12-03T10:18:17.917Z,8.6
2017-12-03T10:20:17.668Z,8.4
2017-12-03T10:22:18.366Z,8.2
2017-12-03T10:24:18.059Z,8.3
2017-12-03T10:26:16.791Z,8.3
2017-12-03T10:28:17.490Z,8.9
2017-12-03T10:30:18.206Z,9.3
2017-12-03T10:32:17.922Z,8.6
2017-12-03T10:34:17.619Z,7.9
2017-12-03T10:36:17.336Z,8.7
2017-12-03T10:38:18.021Z,8.6
2017-12-03T10:40:17.747Z,8.5
2017-12-03T10:42:17.477Z,8.5
2017-12-03T10:44:18.140Z,8.8
2017-12-03T10:46:16.839Z,8
2017-12-03T10:48:17.540Z,8.5
2017-12-03T10:50:18.256Z,9.3
2017-12-03T10:52:17.979Z,7.7
2017-12-03T10:54:17.673Z,8.7
2017-12-03T10:56:17.420Z,8.4
2017-12-03T10:58:18.131Z,8
2017-12-03T11:00:17.848Z,7.9
2017-12-03T11:02:17.568Z,8
2017-12-03T11:04:18.291Z,8.2
2017-12-03T11:06:18.007Z,7.8
2017-12-03T11:08:17.699Z,7.4
2017-12-03T11:10:17.439Z,8.3
2017-12-03T11:12:18.141Z,7.3
2017-12-03T11:14:17.861Z,8.6
2017-12-03T11:16:17.598Z,7.7
2017-12-03T11:18:18.296Z,7.5
2017-12-03T11:20:18.032Z,6.6
2017-12-03T11:22:17.736Z,7.5
2017-12-03T11:24:17.445Z,6.6
2017-12-03T11:26:17.173Z,7.2
2017-12-03T11:28:17.883Z,6.1
2017-12-03T11:30:17.601Z,7
2017-12-03T11:32:18.338Z,7.5
2017-12-03T11:34:18.026Z,6
2017-12-03T11:36:17.774Z,6.7
2017-12-03T11:38:17.477Z,6.3
2017-12-03T11:40:17.204Z,6.4
2017-12-03T11:42:17.939Z,7
2017-12-03T11:44:17.644Z,6.5
2017-12-03T11:46:17.396Z,6.9
2017-12-03T11:48:18.103Z,6.1
2017-12-03T11:50:17.855Z,6.4
2017-12-03T11:52:17.563Z,6.9
2017-12-03T11:54:18.301Z,6.8
2017-12-03T11:56:17.012Z,6.6
2017-12-03T11:58:17.738Z,6.7
2017-12-03T12:00:17.467Z,6.4
2017-12-03T12:02:18.206Z,6.5
2017-12-03T12:04:17.945Z,6.4
2017-12-03T12:06:17.676Z,7
2017-12-03T12:08:18.404Z,6.5
2017-12-03T12:10:17.135Z,6
2017-12-03T12:12:17.866Z,6
2017-12-03T12:14:17.588Z,5.7
2017-12-03T12:16:17.320Z,6.3
2017-12-03T12:18:18.044Z,6
2017-12-03T12:20:17.755Z,6.4
2017-12-03T12:22:17.518Z,6.1
2017-12-03T12:24:18.211Z,5.6
2017-12-03T12:26:16.931Z,5.6
2017-12-03T12:28:17.684Z,5.5
2017-12-03T12:30:18.395Z,5.9
2017-12-03T12:32:18.110Z,6.4
2017-12-03T12:34:17.837Z,6.2
2017-12-03T12:36:17.568Z,5.9
2017-12-03T12:38:18.305Z,6.5
2017-12-03T12:40:17.010Z,5.9
2017-12-03T12:42:17.736Z,5.8
2017-12-03T12:44:17.460Z,5.2
2017-12-03T12:46:17.164Z,6.4
2017-12-03T12:48:17.889Z,6.2
2017-12-03T12:50:17.612Z,5.7
2017-12-03T12:52:18.312Z,6.5
2017-12-03T12:54:18.036Z,6
2017-12-03T12:56:16.748Z,5.9
2017-12-03T12:58:17.468Z,6.4
2017-12-03T13:00:18.174Z,5.8
2017-12-03T13:02:17.886Z,6.1
2017-12-03T13:04:17.606Z,5.9
2017-12-03T13:06:17.311Z,5.9
2017-12-03T13:08:18.027Z,6
2017-12-03T13:10:17.759Z,5.2
2017-12-03T13:12:17.458Z,5.8
2017-12-03T13:14:18.202Z,5.8
2017-12-03T13:16:16.920Z,5.4
2017-12-03T13:18:17.612Z,5.7
2017-12-03T13:20:18.323Z,5.2
2017-12-03T13:22:18.029Z,5.4
2017-12-03T13:26:17.434Z,6
2017-12-03T13:28:18.154Z,5.7
2017-12-03T13:30:17.845Z,5.4
2017-12-03T13:32:17.554Z,6
2017-12-03T13:34:18.264Z,5.1
2017-12-03T13:36:16.956Z,5.2
2017-12-03T13:38:17.674Z,5
2017-12-03T13:40:17.365Z,5.5
2017-12-03T13:44:17.757Z,5.3
2017-12-03T13:46:17.496Z,5.7
2017-12-03T13:48:18.152Z,5.2
2017-12-03T13:50:17.869Z,5.6
2017-12-03T13:52:17.552Z,4.4
2017-12-03T13:54:18.254Z,4.9
2017-12-03T13:56:17.951Z,5
2017-12-03T13:58:17.679Z,4.6
2017-12-03T14:00:18.403Z,4.8
2017-12-03T14:02:18.048Z,5
2017-12-03T14:04:17.736Z,5
2017-12-03T14:06:17.456Z,4.9
2017-12-03T14:08:18.139Z,5.3
2017-12-03T14:10:17.829Z,5.3
2017-12-03T14:12:17.535Z,5
2017-12-03T14:14:18.217Z,4.6
2017-12-03T14:16:17.895Z,5.1
2017-12-03T14:18:17.581Z,5.4
2017-12-03T14:20:18.251Z,5.1
2017-12-03T14:22:17.970Z,5.1
2017-12-03T14:24:17.645Z,4.5
2017-12-03T14:26:17.326Z,5.5
2017-12-03T14:28:18.017Z,5.3
2017-12-03T14:30:17.714Z,5.2
2017-12-03T14:32:17.362Z,5.4
2017-12-03T14:34:18.065Z,5.9
2017-12-03T14:36:16.747Z,5.5
2017-12-03T14:38:17.448Z,5
2017-12-03T14:40:17.154Z,5.2
2017-12-03T14:42:17.850Z,5.7
2017-12-03T14:44:17.571Z,4.9
2017-12-03T14:46:17.264Z,4.9
2017-12-03T14:48:17.986Z,4.7
2017-12-03T14:50:17.693Z,5.4
2017-12-03T14:52:18.378Z,4.6
2017-12-03T14:54:18.083Z,4.7
2017-12-03T14:56:17.777Z,4.8
2017-12-03T14:58:17.501Z,4.9
2017-12-03T15:00:18.198Z,5.6
2017-12-03T15:02:17.898Z,4.4
2017-12-03T15:04:17.590Z,5
2017-12-03T15:06:17.292Z,4.8
2017-12-03T15:08:17.969Z,4.8
2017-12-03T15:10:17.681Z,5.1
2017-12-03T15:12:18.366Z,5.7
2017-12-03T15:14:18.053Z,4.8
2017-12-03T15:16:17.786Z,4.4
2017-12-03T15:18:17.469Z,4.9
2017-12-03T15:20:18.162Z,5
2017-12-03T15:22:17.845Z,5.3
2017-12-03T15:24:17.555Z,4.9
2017-12-03T15:26:17.258Z,5
2017-12-03T15:28:17.934Z,5
2017-12-03T15:32:17.334Z,5.2
2017-12-03T15:34:17.992Z,4.6
2017-12-03T15:36:17.718Z,5.5
2017-12-03T15:38:17.412Z,5.2
2017-12-03T15:40:17.123Z,4.5
2017-12-03T15:42:17.784Z,4.4
2017-12-03T15:44:17.491Z,4.7
2017-12-03T15:46:17.163Z,4
2017-12-03T15:48:17.868Z,5.1
2017-12-03T15:50:17.549Z,4.1
2017-12-03T15:52:18.227Z,4.7
2017-12-03T15:54:17.931Z,4.2
2017-12-03T15:56:17.601Z,4
2017-12-03T15:58:18.334Z,5.1
2017-12-03T16:00:18.029Z,4.7
2017-12-03T16:02:17.740Z,4.1
2017-12-03T16:04:17.461Z,4.9
2017-12-03T16:06:18.133Z,4.5
2017-12-03T16:08:17.851Z,4.7
2017-12-03T16:10:17.553Z,4.2
2017-12-03T16:12:18.267Z,4.1
2017-12-03T16:14:17.967Z,4.1
2017-12-03T16:16:16.678Z,4.4
2017-12-03T16:18:17.388Z,4.6
2017-12-03T16:20:18.072Z,4.5
2017-12-03T16:22:17.770Z,4.6
2017-12-03T16:24:17.460Z,5
2017-12-03T16:26:17.169Z,3.7
2017-12-03T16:28:17.865Z,4.4
2017-12-03T16:30:17.584Z,4.6
2017-12-03T16:32:18.280Z,3.9
2017-12-03T16:34:17.998Z,4.2
2017-12-03T16:36:16.698Z,4
2017-12-03T16:38:18.389Z,4.4
2017-12-03T16:40:17.116Z,4.2
2017-12-03T16:42:17.792Z,4.2
2017-12-03T16:44:17.527Z,4.2
2017-12-03T16:46:17.209Z,4.4
2017-12-03T16:48:17.902Z,3.6
2017-12-03T16:50:17.615Z,4.2
2017-12-03T16:52:18.296Z,4.3
2017-12-03T16:54:18.002Z,3.4
2017-12-03T16:56:16.728Z,4.2
2017-12-03T16:58:17.418Z,4.2
2017-12-03T17:00:18.128Z,3.7
2017-12-03T17:02:17.816Z,3.6
2017-12-03T17:04:17.521Z,4.2
2017-12-03T17:06:17.211Z,4.6
2017-12-03T17:08:17.908Z,3.5
2017-12-03T17:10:17.620Z,4.6
2017-12-03T17:12:18.319Z,4.4
2017-12-03T17:14:18.000Z,4.1
2017-12-03T17:16:16.685Z,5.1
2017-12-03T17:18:17.392Z,4
2017-12-03T17:20:18.080Z,5
2017-12-03T17:22:17.762Z,4.4
2017-12-03T17:24:17.467Z,4.6
2017-12-03T17:26:17.136Z,4.1
2017-12-03T17:28:17.827Z,4.7
2017-12-03T17:30:17.554Z,4.1
2017-12-03T17:32:18.216Z,4.1
2017-12-03T17:34:17.912Z,4.7
2017-12-03T17:36:17.602Z,4
2017-12-03T17:38:18.276Z,4.3
2017-12-03T17:40:16.966Z,4.2
2017-12-03T17:42:17.667Z,4.1
2017-12-03T17:44:18.358Z,4.7
2017-12-03T17:46:17.080Z,4
2017-12-03T17:48:17.771Z,4.3
2017-12-03T17:50:17.470Z,4.1
2017-12-03T17:52:18.183Z,4.1
2017-12-03T17:54:17.870Z,4.2
2017-12-03T17:56:17.582Z,4.4
2017-12-03T17:58:18.291Z,4.2
2017-12-03T18:00:17.986Z,4.3
2017-12-03T18:02:17.706Z,4.4
2017-12-03T18:04:18.392Z,3.9
2017-12-03T18:06:17.127Z,4.4
2017-12-03T18:08:17.810Z,5.2
2017-12-03T18:10:17.524Z,5.1
2017-12-03T18:12:18.229Z,4.6
2017-12-03T18:14:17.908Z,4.4
2017-12-03T18:16:17.636Z,4.5
2017-12-03T18:18:18.321Z,4.7
2017-12-03T18:20:18.021Z,4.8
2017-12-03T18:22:17.717Z,5.3
2017-12-03T18:24:18.393Z,5.2
2017-12-03T18:26:18.102Z,4.7
2017-12-03T18:28:17.821Z,4.9
2017-12-03T18:30:17.495Z,5.5
2017-12-03T18:32:18.207Z,5.1
2017-12-03T18:34:17.887Z,4.8
2017-12-03T18:36:17.607Z,5.2
2017-12-03T18:38:18.304Z,6.1
2017-12-03T18:40:17.018Z,5.6
2017-12-03T18:42:17.708Z,5.5
2017-12-03T18:44:18.416Z,4.9
2017-12-03T18:46:17.104Z,4.7
2017-12-03T18:48:17.800Z,5.2
2017-12-03T18:50:17.519Z,6
2017-12-03T18:52:18.214Z,6
2017-12-03T18:54:17.935Z,5.7
2017-12-03T18:56:19.614Z,5.9
2017-12-03T19:00:17.024Z,5.6
2017-12-03T19:02:17.704Z,5.3
2017-12-03T19:04:17.396Z,5.6
2017-12-03T19:06:17.091Z,6.1
2017-12-03T19:08:17.914Z,5.7
2017-12-03T19:10:17.495Z,5.5
2017-12-03T19:12:18.196Z,6.3
2017-12-03T19:14:17.889Z,6.6
2017-12-03T19:16:17.588Z,6.2
2017-12-03T19:18:18.274Z,5.9
2017-12-03T19:20:17.995Z,6.2
2017-12-03T19:22:17.693Z,6.3
2017-12-03T19:24:18.403Z,6.2
2017-12-03T19:26:17.151Z,6.1
2017-12-03T19:28:17.896Z,6.7
2017-12-03T19:30:17.601Z,6.8
2017-12-03T19:32:18.342Z,7.3
2017-12-03T19:34:18.068Z,8.5
2017-12-03T19:36:17.751Z,7.9
2017-12-03T19:38:17.465Z,7.9
2017-12-03T19:40:17.155Z,7.9
2017-12-03T19:42:17.858Z,7.9
2017-12-03T19:44:17.535Z,8.3
2017-12-03T19:46:17.274Z,7.8
2017-12-03T19:48:17.926Z,8.8
2017-12-03T19:50:17.629Z,8
2017-12-03T19:52:18.341Z,8
2017-12-03T19:54:18.048Z,8.2
2017-12-03T19:56:17.744Z,8.7
2017-12-03T19:58:17.445Z,7.9
2017-12-03T20:00:18.147Z,7.8
2017-12-03T20:02:17.848Z,8.1
2017-12-03T20:04:17.541Z,7.9
2017-12-03T20:06:17.243Z,9.6
2017-12-03T20:08:17.943Z,7.9
2017-12-03T20:10:17.666Z,8.5
2017-12-03T20:12:18.348Z,8
2017-12-03T20:14:18.070Z,8.4
2017-12-03T20:16:17.766Z,8.7
2017-12-03T20:18:17.477Z,8.7
2017-12-03T20:20:18.177Z,8.7
2017-12-03T20:22:17.884Z,9.3
2017-12-03T20:24:17.560Z,9.1
2017-12-03T20:26:17.260Z,10.1
2017-12-03T20:28:17.955Z,9.8
2017-12-03T20:30:17.664Z,9.9
2017-12-03T20:32:18.376Z,9.2
2017-12-03T20:34:18.095Z,9.9
2017-12-03T20:36:16.798Z,9.4
2017-12-03T20:38:17.505Z,10
2017-12-03T20:40:17.208Z,9.4
2017-12-03T20:42:17.895Z,10.4
2017-12-03T20:44:17.605Z,10.2
2017-12-03T20:46:17.322Z,8.8
2017-12-03T20:48:18.024Z,10
2017-12-03T20:50:17.749Z,11.5
2017-12-03T20:52:17.458Z,11
2017-12-03T20:54:18.160Z,11.4
2017-12-03T20:56:17.864Z,10.1
2017-12-03T20:58:17.574Z,9.6
2017-12-03T21:00:18.293Z,11.7
2017-12-03T21:02:17.983Z,11.1
2017-12-03T21:04:17.702Z,11.8
2017-12-03T21:06:17.429Z,10.4
2017-12-03T21:08:18.124Z,10.3
2017-12-03T21:10:17.809Z,10.9
2017-12-03T21:12:17.517Z,10.6
2017-12-03T21:14:18.203Z,11.9
2017-12-03T21:16:16.940Z,11.2
2017-12-03T21:18:17.634Z,11
2017-12-03T21:20:18.345Z,11.3
2017-12-03T21:22:18.022Z,11.1
2017-12-03T21:24:17.744Z,12.2
2017-12-03T21:26:17.481Z,11.9
2017-12-03T21:28:18.171Z,11.1
2017-12-03T21:30:17.876Z,12.5
2017-12-03T21:32:17.597Z,11.7
2017-12-03T21:34:18.274Z,12.3
2017-12-03T21:36:16.969Z,13.3
2017-12-03T21:38:17.656Z,12.7
2017-12-03T21:40:17.368Z,11.8
2017-12-03T21:42:18.077Z,12
2017-12-03T21:44:17.771Z,12.6
2017-12-03T21:46:17.480Z,14.1
2017-12-03T21:48:18.186Z,12.9
2017-12-03T21:50:17.864Z,12.5
2017-12-03T21:52:17.568Z,13.7
2017-12-03T21:54:18.268Z,13.1
2017-12-03T21:56:17.987Z,12.8
2017-12-03T21:58:17.692Z,12.6
2017-12-03T22:00:18.382Z,13.7
2017-12-03T22:02:18.098Z,13
2017-12-03T22:04:17.812Z,14.2
2017-12-03T22:06:17.510Z,12.6
2017-12-03T22:08:18.233Z,13.5
2017-12-03T22:10:16.939Z,13.9
2017-12-03T22:12:17.645Z,14
2017-12-03T22:14:18.359Z,13.8
2017-12-03T22:16:17.074Z,14.3
2017-12-03T22:18:17.753Z,12.1
2017-12-03T22:20:17.480Z,12.1
2017-12-03T22:22:18.197Z,11.6
2017-12-03T22:24:17.904Z,10.8
2017-12-03T22:26:17.635Z,11.5
2017-12-03T22:28:18.355Z,10.4
2017-12-03T22:30:18.062Z,10.7
2017-12-03T22:32:17.770Z,10.1
2017-12-03T22:34:17.480Z,10.3
2017-12-03T22:36:17.184Z,10
2017-12-03T22:38:17.880Z,10.6
2017-12-03T22:40:17.596Z,11
2017-12-03T22:42:18.289Z,9.5
2017-12-03T22:44:18.007Z,11.3
2017-12-03T22:46:16.698Z,10.8
2017-12-03T22:48:18.400Z,10.6
2017-12-03T22:50:18.139Z,10.7
2017-12-03T22:52:17.842Z,11
2017-12-03T22:54:17.550Z,10.2
2017-12-03T22:56:17.250Z,10.8
2017-12-03T22:58:17.965Z,9.4
2017-12-03T23:00:17.677Z,10
2017-12-03T23:02:18.381Z,9.6
2017-12-03T23:04:18.080Z,8.8
2017-12-03T23:06:16.806Z,9.3
2017-12-03T23:08:17.483Z,10
2017-12-03T23:10:17.217Z,9.5
2017-12-03T23:12:17.925Z,9.7
2017-12-03T23:14:17.637Z,9.6
2017-12-03T23:16:17.342Z,8.8
2017-12-03T23:18:18.093Z,9.9
2017-12-03T23:20:17.794Z,10.8
2017-12-03T23:22:17.501Z,10.8
2017-12-03T23:24:18.187Z,10.2
2017-12-03T23:26:16.922Z,9.5
2017-12-03T23:28:17.638Z,9.9
2017-12-03T23:30:18.348Z,10.7
2017-12-03T23:32:18.052Z,10.2
2017-12-03T23:34:17.758Z,10.7
2017-12-03T23:36:18.443Z,11.1
2017-12-03T23:38:18.166Z,10.8
2017-12-03T23:40:17.869Z,11
2017-12-03T23:42:17.559Z,11.6
2017-12-03T23:44:18.272Z,10.1
2017-12-03T23:46:16.981Z,10.2
2017-12-03T23:48:17.661Z,10.6
2017-12-03T23:50:18.394Z,10
2017-12-03T23:52:18.098Z,9.5
2017-12-03T23:54:17.829Z,10.6
2017-12-03T23:56:17.562Z,11
2017-12-03T23:58:18.248Z,11.4
